Time;durP1;ratioP1;P1;durP2;ratioP2;P2;SDS_P1;SDS_P2;PMS_P1;PMS_P2;Temp;Humidity;BMP_temperature;BMP_pressure;BME280_temperature;BME280_humidity;BME280_pressure;Samples;Min_cycle;Max_cycle;Signal;HPM_P1;HPM_P2
2024/05/03 00:02:13;;;;;;;11.60;3.47;;;;;;;13.26;68.17;98684.56;4993270;28;19998;-96
2024/05/03 00:04:51;;;;;;;11.73;3.35;;;;;;;13.28;67.75;98681.53;5040529;28;19998;-96
2024/05/03 00:10:11;;;;;;;14.23;2.63;;;;;;;13.33;66.62;98689.56;5071984;27;20014;-96
2024/05/03 00:12:46;;;;;;;10.25;3.47;;;;;;;13.23;66.89;98687.84;5017374;28;19999;-96
2024/05/03 00:15:14;;;;;;;10.55;2.33;;;;;;;13.36;66.56;98699.75;5067063;28;20014;-96
2024/05/03 00:17:50;;;;;;;7.65;1.88;;;;;;;13.24;67.44;98715.66;5040914;28;20010;-95
2024/05/03 00:20:18;;;;;;;5.15;1.95;;;;;;;12.96;67.23;98680.56;5015393;28;20010;-96
2024/05/03 00:22:53;;;;;;;7.55;2.30;;;;;;;12.92;67.70;98687.66;5063881;28;19998;-96
2024/05/03 00:25:24;;;;;;;11.55;4.45;;;;;;;12.94;67.81;98688.97;5040560;28;20500;-96
2024/05/03 00:28:07;;;;;;;11.65;4.82;;;;;;;13.08;66.64;98697.06;5012985;28;20003;-96
2024/05/03 00:30:37;;;;;;;9.13;4.20;;;;;;;13.06;66.38;98687.66;5039318;28;20083;-96
2024/05/03 00:33:03;;;;;;;10.73;4.90;;;;;;;13.31;66.09;98713.41;5038421;28;20074;-95
2024/05/03 00:35:32;;;;;;;23.98;5.30;;;;;;;13.05;66.29;98686.88;5014305;28;20010;-96
2024/05/03 00:38:00;;;;;;;13.82;5.32;;;;;;;13.06;66.48;98682.25;5040373;28;20043;-95
2024/05/03 00:40:26;;;;;;;13.40;4.25;;;;;;;13.13;66.10;98694.25;5064344;28;20017;-96
2024/05/03 00:42:53;;;;;;;12.25;5.15;;;;;;;13.26;65.52;98700.78;5014599;28;20027;-95
2024/05/03 00:45:20;;;;;;;11.93;4.18;;;;;;;13.12;65.39;98671.03;5037543;28;20013;-96
2024/05/03 00:47:48;;;;;;;15.02;4.45;;;;;;;13.09;65.39;98655.44;5036679;28;19998;-96
2024/05/03 00:50:21;;;;;;;9.65;4.30;;;;;;;13.20;65.05;98666.00;5038140;28;19994;-96
2024/05/03 00:52:48;;;;;;;12.23;4.63;;;;;;;13.01;66.72;98668.84;5039296;28;20087;-96
2024/05/03 00:55:16;;;;;;;12.30;4.90;;;;;;;12.95;66.80;98673.56;5037047;28;20018;-95
2024/05/03 00:57:45;;;;;;;12.40;5.22;;;;;;;12.91;66.63;98672.56;5065798;28;19994;-96
2024/05/03 01:00:13;;;;;;;14.38;4.65;;;;;;;12.74;67.43;98665.88;5015037;28;20013;-96
2024/05/03 01:02:41;;;;;;;11.95;4.80;;;;;;;12.63;67.39;98647.44;5013213;28;20002;-96
2024/05/03 01:05:07;;;;;;;12.50;4.35;;;;;;;12.61;67.84;98666.66;5039779;28;20434;-96
2024/05/03 01:07:35;;;;;;;12.80;4.53;;;;;;;12.47;68.15;98634.25;5039103;28;20007;-95
2024/05/03 01:10:08;;;;;;;12.60;4.90;;;;;;;12.66;67.85;98665.78;5063032;28;20026;-96
2024/05/03 01:12:34;;;;;;;8.80;4.18;;;;;;;12.44;68.16;98625.94;5064506;28;20014;-96
2024/05/03 01:15:09;;;;;;;10.90;4.50;;;;;;;12.38;68.63;98636.03;5039152;28;20009;-96
2024/05/03 01:17:36;;;;;;;15.52;4.53;;;;;;;12.46;68.17;98635.34;5013535;28;20014;-96
2024/05/03 01:20:06;;;;;;;12.90;3.80;;;;;;;12.49;68.31;98655.53;5036373;28;19991;-94
2024/05/03 01:22:39;;;;;;;13.25;3.90;;;;;;;12.28;68.22;98634.31;5038668;28;19999;-96
2024/05/03 01:25:05;;;;;;;11.02;3.58;;;;;;;12.39;68.41;98645.75;5037984;28;20003;-95
2024/05/03 01:27:31;;;;;;;11.63;3.38;;;;;;;12.37;68.51;98644.41;5037597;28;20010;-94
2024/05/03 01:29:57;;;;;;;6.43;3.20;;;;;;;12.34;68.60;98643.13;5010799;28;20002;-95
2024/05/03 01:32:30;;;;;;;6.55;2.72;;;;;;;12.39;68.62;98632.25;5013322;28;19999;-95
2024/05/03 01:34:56;;;;;;;8.65;2.95;;;;;;;12.43;67.85;98621.63;5011326;28;20006;-96
2024/05/03 01:37:24;;;;;;;7.30;3.65;;;;;;;12.31;68.42;98624.84;5010644;28;20467;-95
2024/05/03 01:39:54;;;;;;;6.13;2.63;;;;;;;12.22;68.72;98618.50;5012646;28;20022;-94
2024/05/03 01:42:20;;;;;;;8.70;3.10;;;;;;;12.22;68.69;98627.44;5035671;28;20010;-95
2024/05/03 01:44:50;;;;;;;15.10;4.00;;;;;;;12.20;68.93;98637.72;5012772;28;20018;-96
2024/05/03 01:47:18;;;;;;;8.90;3.25;;;;;;;12.06;69.28;98618.00;5013136;28;20006;-96
2024/05/03 01:49:45;;;;;;;7.95;3.30;;;;;;;12.02;69.15;98612.38;5039303;28;20010;-96
2024/05/03 01:52:12;;;;;;;6.15;3.00;;;;;;;12.30;68.98;98650.22;5013041;28;20459;-96
2024/05/03 01:54:39;;;;;;;7.18;2.90;;;;;;;12.22;68.63;98621.19;5012791;28;19994;-95
2024/05/03 01:57:05;;;;;;;11.07;3.53;;;;;;;12.23;68.51;98615.50;5039001;28;20006;-94
2024/05/03 01:59:32;;;;;;;9.05;2.88;;;;;;;12.28;67.72;98618.09;5012408;28;20347;-96
2024/05/03 02:02:10;;;;;;;7.18;2.70;;;;;;;12.23;68.15;98620.91;5011396;28;19999;-96
2024/05/03 02:04:41;;;;;;;8.77;2.30;;;;;;;12.21;67.79;98611.53;5039023;28;20002;-95
2024/05/03 02:07:07;;;;;;;8.43;2.45;;;;;;;12.12;67.97;98608.72;5039441;28;20002;-96
2024/05/03 02:09:32;;;;;;;6.25;2.47;;;;;;;12.33;67.66;98628.81;5011842;28;20010;-96
2024/05/03 02:12:02;;;;;;;5.85;1.90;;;;;;;12.38;66.43;98611.72;5012130;28;20015;-96
2024/05/03 02:14:33;;;;;;;6.15;1.83;;;;;;;12.41;66.88;98615.72;5039639;28;20014;-95
2024/05/03 02:17:02;;;;;;;8.85;1.67;;;;;;;12.39;66.76;98607.94;5036883;28;20002;-95
2024/05/03 02:19:29;;;;;;;8.00;2.10;;;;;;;12.62;65.92;98630.44;5036540;28;20006;-96
2024/05/03 02:21:55;;;;;;;7.22;1.60;;;;;;;12.41;67.40;98613.03;5012415;28;20031;-95
2024/05/03 02:24:22;;;;;;;7.57;1.80;;;;;;;12.20;67.81;98588.31;5037345;28;20010;-95
2024/05/03 02:26:50;;;;;;;6.55;1.90;;;;;;;12.15;68.05;98591.13;5036524;28;20069;-96
2024/05/03 02:29:16;;;;;;;4.97;2.13;;;;;;;12.27;67.36;98592.22;5013455;28;19999;-96
2024/05/03 02:31:42;;;;;;;10.65;3.95;;;;;;;12.30;66.85;98578.13;5013756;28;20021;-96
2024/05/03 02:34:08;;;;;;;7.70;2.85;;;;;;;12.64;66.11;98616.66;5013162;28;20007;-96
2024/05/03 02:36:40;;;;;;;6.80;2.80;;;;;;;12.47;67.16;98609.13;5011735;28;20010;-96
2024/05/03 02:39:07;;;;;;;9.25;3.33;;;;;;;12.39;66.73;98586.34;5015236;28;20013;-96
2024/05/03 02:41:33;;;;;;;10.23;3.40;;;;;;;12.48;66.14;98578.34;5012933;28;20011;-95
2024/05/03 02:43:59;;;;;;;12.43;3.42;;;;;;;12.50;65.72;98574.22;5010742;28;20017;-96
2024/05/03 02:46:25;;;;;;;7.97;3.25;;;;;;;12.53;65.51;98591.72;5011643;28;20411;-96
2024/05/03 02:48:51;;;;;;;7.05;3.10;;;;;;;12.53;65.18;98587.16;5011657;28;20003;-96
2024/05/03 02:51:19;;;;;;;7.97;2.50;;;;;;;12.55;65.28;98589.53;5011852;28;20017;-96
2024/05/03 02:53:45;;;;;;;8.18;2.50;;;;;;;12.44;66.46;98591.63;5010762;28;20046;-96
2024/05/03 02:56:11;;;;;;;5.13;1.92;;;;;;;12.26;67.07;98584.41;5013255;28;20010;-96
2024/05/03 02:58:42;;;;;;;13.43;2.65;;;;;;;12.42;66.39;98598.44;5012875;28;20009;-96
2024/05/03 03:01:08;;;;;;;5.95;1.85;;;;;;;12.34;65.85;98584.53;5013814;28;20442;-96
2024/05/03 03:03:34;;;;;;;8.80;2.70;;;;;;;12.38;65.91;98575.84;5013322;28;20006;-96
2024/05/03 03:06:06;;;;;;;9.48;2.10;;;;;;;12.24;66.85;98584.75;5011431;28;20030;-96
2024/05/03 03:08:34;;;;;;;10.23;2.17;;;;;;;12.18;67.53;98588.63;5038618;27;20013;-96
2024/05/03 03:11:00;;;;;;;11.02;2.53;;;;;;;11.91;68.05;98584.78;5037548;28;20007;-96
2024/05/03 03:13:31;;;;;;;8.18;2.15;;;;;;;11.84;68.15;98567.34;5010848;28;20006;-96
2024/05/03 03:15:56;;;;;;;5.40;2.08;;;;;;;12.05;68.11;98592.09;5013523;28;19987;-96
2024/05/03 03:18:22;;;;;;;5.90;2.05;;;;;;;11.96;67.81;98573.09;5013991;28;20006;-96
2024/05/03 03:20:49;;;;;;;8.07;2.22;;;;;;;11.91;68.30;98582.09;5013146;28;19987;-94
2024/05/03 03:23:17;;;;;;;7.25;2.10;;;;;;;12.01;68.04;98604.56;5013244;27;20011;-96
2024/05/03 03:25:43;;;;;;;6.75;2.00;;;;;;;11.70;68.35;98578.09;5012586;28;20431;-95
2024/05/03 03:28:11;;;;;;;9.23;2.10;;;;;;;11.77;68.75;98600.09;5010862;28;20012;-96
2024/05/03 03:30:44;;;;;;;6.20;2.00;;;;;;;11.49;69.09;98561.44;5005806;28;19999;-96
2024/05/03 03:33:13;;;;;;;6.72;2.40;;;;;;;11.49;69.14;98570.34;5037725;28;19994;-96
2024/05/03 03:35:38;;;;;;;6.53;1.85;;;;;;;11.62;69.39;98587.69;5037834;28;19999;-96
2024/05/03 03:38:07;;;;;;;8.93;2.58;;;;;;;11.65;69.76;98597.84;5010423;28;20002;-95
2024/05/03 03:40:32;;;;;;;8.20;2.33;;;;;;;11.52;70.49;98588.63;5010059;28;20002;-96
2024/05/03 03:43:04;;;;;;;7.63;2.33;;;;;;;11.51;70.31;98581.63;5009358;28;20438;-95
2024/05/03 03:45:29;;;;;;;8.88;2.05;;;;;;;11.58;69.66;98581.28;5011962;28;20197;-95
2024/05/03 03:47:58;;;;;;;3.38;1.80;;;;;;;11.52;69.90;98564.38;5010530;28;20070;-96
2024/05/03 03:50:26;;;;;;;8.40;1.80;;;;;;;11.41;70.04;98549.44;5034566;28;19999;-96
2024/05/03 03:53:01;;;;;;;5.28;1.98;;;;;;;11.50;70.31;98574.66;5010194;28;20006;-95
2024/05/03 03:55:29;;;;;;;5.85;1.85;;;;;;;11.67;70.59;98589.47;5014083;27;20007;-94
2024/05/03 03:57:58;;;;;;;7.20;1.98;;;;;;;11.40;70.42;98563.22;5010620;28;20006;-96
2024/05/03 04:00:23;;;;;;;5.93;1.90;;;;;;;11.46;70.62;98570.13;5010563;28;20074;-96
2024/05/03 04:02:59;;;;;;;9.18;2.20;;;;;;;11.56;70.43;98571.84;5008645;28;20018;-96
2024/05/03 04:05:25;;;;;;;7.03;2.20;;;;;;;11.70;70.13;98581.59;5012715;28;20482;-95
2024/05/03 04:07:50;;;;;;;5.20;1.75;;;;;;;11.58;70.38;98565.09;5011611;28;20010;-94
2024/05/03 04:10:16;;;;;;;15.80;2.42;;;;;;;11.64;70.67;98573.88;5012602;28;20007;-96
2024/05/03 04:12:42;;;;;;;5.03;1.85;;;;;;;11.64;70.34;98555.81;5011682;28;20082;-96
2024/05/03 04:15:10;;;;;;;5.28;2.08;;;;;;;11.65;69.67;98545.84;5013155;28;20007;-95
2024/05/03 04:17:36;;;;;;;7.93;2.20;;;;;;;11.63;69.76;98540.72;5012520;28;20018;-95
2024/05/03 04:20:03;;;;;;;4.47;2.08;;;;;;;11.58;69.27;98530.03;5012480;28;20093;-96
2024/05/03 04:22:28;;;;;;;6.50;2.60;;;;;;;11.72;68.97;98536.28;5013090;28;19999;-95
2024/05/03 04:24:57;;;;;;;6.68;2.42;;;;;;;11.86;68.66;98544.38;5013679;28;19998;-96
2024/05/03 04:27:25;;;;;;;7.50;2.97;;;;;;;12.17;67.16;98551.16;5038577;28;20010;-94
2024/05/03 04:29:51;;;;;;;8.68;3.25;;;;;;;12.27;66.79;98561.75;5016853;28;19998;-95
2024/05/03 04:32:19;;;;;;;12.07;3.33;;;;;;;12.33;66.69;98561.34;5015229;28;20010;-96
2024/05/03 04:34:54;;;;;;;7.90;2.80;;;;;;;12.37;66.06;98553.44;5014441;28;20014;-96
2024/05/03 04:37:20;;;;;;;6.70;2.00;;;;;;;12.55;65.31;98562.53;5017460;28;20006;-96
2024/05/03 04:39:46;;;;;;;11.15;2.15;;;;;;;12.49;65.39;98544.81;5012655;28;20457;-96
2024/05/03 04:42:22;;;;;;;;;;;;;;;;;;;;;
2024/05/03 04:44:53;;;;;;;9.90;2.25;;;;;;;12.66;64.66;98547.72;5043721;28;20013;-96
2024/05/03 04:47:21;;;;;;;10.10;3.00;;;;;;;12.78;64.80;98557.19;5040374;28;20011;-96
2024/05/03 04:49:53;;;;;;;11.07;2.83;;;;;;;12.68;65.06;98550.13;5013685;28;20012;-96
2024/05/03 04:52:18;;;;;;;11.55;3.30;;;;;;;12.74;65.17;98559.69;5014057;28;20009;-96
2024/05/03 04:54:44;;;;;;;11.32;4.20;;;;;;;12.71;65.10;98539.50;5014038;28;19998;-96
2024/05/03 04:57:16;;;;;;;8.57;2.83;;;;;;;12.79;64.81;98548.78;5014189;28;19999;-96
2024/05/03 04:59:45;;;;;;;8.45;2.85;;;;;;;12.89;64.99;98547.78;5015359;28;19999;-96
2024/05/03 05:02:11;;;;;;;9.98;3.17;;;;;;;12.84;64.71;98540.56;5042739;28;20403;-95
2024/05/03 05:04:36;;;;;;;18.20;3.15;;;;;;;12.96;65.02;98558.16;5016493;28;20052;-96
2024/05/03 05:07:02;;;;;;;23.08;4.60;;;;;;;12.90;65.07;98546.66;5015270;28;20002;-95
2024/05/03 05:09:31;;;;;;;10.40;3.40;;;;;;;12.97;64.45;98544.38;5014493;28;20006;-95
2024/05/03 05:11:59;;;;;;;10.32;2.80;;;;;;;13.15;63.76;98551.50;5043553;28;20011;-95
2024/05/03 05:14:31;;;;;;;11.35;2.30;;;;;;;13.07;63.06;98537.91;5039854;28;20005;-95
2024/05/03 05:16:57;;;;;;;4.47;1.95;;;;;;;13.11;63.57;98552.41;5013731;28;20040;-96
2024/05/03 05:19:23;;;;;;;8.90;2.33;;;;;;;13.06;63.29;98531.72;5014893;28;20002;-96
2024/05/03 05:22:11;;;;;;;7.82;1.80;;;;;;;13.39;62.33;98547.75;5016858;28;20013;-96
2024/05/03 05:24:45;;;;;;;7.85;1.80;;;;;;;13.31;61.39;98510.63;5042148;28;20009;-96
2024/05/03 05:27:28;;;;;;;7.05;2.10;;;;;;;13.37;61.06;98504.00;5018384;28;20002;-96
2024/05/03 05:29:56;;;;;;;5.75;2.17;;;;;;;13.57;61.43;98524.31;5043855;28;20052;-95
2024/05/03 05:32:30;;;;;;;10.00;2.58;;;;;;;13.61;61.29;98510.97;5019722;28;20430;-96
2024/05/03 05:35:07;;;;;;;6.82;2.13;;;;;;;13.74;61.26;98524.41;5043489;28;19999;-95
2024/05/03 05:37:34;;;;;;;6.45;2.20;;;;;;;13.62;61.33;98505.25;5020487;28;19999;-95
2024/05/03 05:40:03;;;;;;;7.80;2.33;;;;;;;13.91;61.49;98534.53;5017512;28;20007;-95
2024/05/03 05:45:06;;;;;;;12.45;3.13;;;;;;;13.56;60.41;98489.47;5049832;28;20002;-95
2024/05/03 05:47:37;;;;;;;10.30;3.67;;;;;;;13.67;60.29;98485.38;5012843;28;20009;-94
2024/05/03 05:50:35;;;;;;;;;;;;;;;;;;;;;
2024/05/03 06:14:47;;;;;;;;;;;;;;;;;;;;;
2024/05/03 06:21:21;;;;;;;10.23;5.15;;;;;;;14.83;56.87;98481.59;4957229;28;20005;-96
2024/05/03 06:27:53;;;;;;;;;;;;;;;;;;;;;
2024/05/03 06:34:05;;;;;;;;;;;;;;;;;;;;;
2024/05/03 06:40:15;;;;;;;;;;;;;;;;;;;;;
2024/05/03 06:43:36;;;;;;;13.93;2.85;;;;;;;15.60;57.29;98496.19;5006325;28;20000;-96
2024/05/03 06:46:36;;;;;;;;;;;;;;;;;;;;;
2024/05/03 06:49:04;;;;;;;10.63;2.90;;;;;;;15.95;55.68;98491.47;5031323;28;20106;-95
2024/05/03 06:55:02;;;;;;;;;;;;;;;;;;;;;
2024/05/03 06:58:20;;;;;;;;;;;;;;;;;;;;;
2024/05/03 07:04:06;;;;;;;;;;;;;;;;;;;;;
2024/05/03 07:07:00;;;;;;;14.98;3.53;;;;;;;16.59;55.22;98489.69;5038713;28;20003;-96
2024/05/03 07:09:45;;;;;;;;;;;;;;;;;;;;;
2024/05/03 07:12:40;;;;;;;5.38;2.10;;;;;;;16.80;54.01;98478.03;5037245;28;20003;-96
2024/05/03 07:15:16;;;;;;;6.78;1.98;;;;;;;16.81;53.05;98453.28;4991290;28;20166;-96
2024/05/03 07:21:28;;;;;;;8.90;1.73;;;;;;;17.21;52.23;98471.03;4996108;28;20011;-95
2024/05/03 07:23:57;;;;;;;5.53;1.98;;;;;;;17.46;51.44;98461.00;4979883;28;20081;-95
2024/05/03 07:26:33;;;;;;;5.60;1.88;;;;;;;17.85;51.63;98475.97;4978498;28;20000;-96
2024/05/03 07:29:15;;;;;;;9.02;1.77;;;;;;;17.71;50.85;98450.94;4958716;28;19996;-94
2024/05/03 07:32:15;;;;;;;;;;;;;;;17.91;50.05;98477.34;5009071;28;20081;-95
2024/05/03 07:35:00;;;;;;;11.63;2.10;;;;;;;17.78;50.43;98443.81;5052994;28;19930;-96
2024/05/03 07:37:42;;;;;;;6.45;1.90;;;;;;;18.09;49.57;98452.59;5044276;28;20003;-96
2024/05/03 07:40:47;;;;;;;;;;;;;;;;;;;;;
2024/05/03 07:43:44;;;;;;;5.75;1.98;;;;;;;17.74;50.07;98428.47;4999783;28;20009;-96
2024/05/03 07:46:10;;;;;;;9.80;1.92;;;;;;;17.94;49.99;98441.22;4969877;28;20003;-95
2024/05/03 07:48:53;;;;;;;9.80;2.28;;;;;;;18.01;50.16;98445.31;5002738;28;20000;-96
2024/05/03 07:51:35;;;;;;;;;;;;;;;;;;;;;
2024/05/03 07:54:38;;;;;;;;;;;;;;;;;;;;;
2024/05/03 07:57:11;;;;;;;6.22;2.10;;;;;;;18.70;47.75;98422.50;4986243;28;20012;-95
2024/05/03 08:02:13;;;;;;;6.70;1.90;;;;;;;19.16;47.11;98446.81;5153203;22;20030;-94
2024/05/03 08:04:49;;;;;;;5.97;1.88;;;;;;;19.19;46.78;98437.91;5034895;28;20011;-92
2024/05/03 08:07:24;;;;;;;9.32;2.40;;;;;;;19.38;46.86;98462.63;5042696;28;20050;-96
2024/05/03 08:10:00;;;;;;;6.25;1.85;;;;;;;19.00;47.89;98433.09;5030032;28;20182;-96
2024/05/03 08:13:04;;;;;;;9.38;1.95;;;;;;;19.12;46.85;98424.88;4983355;28;20056;-96
2024/05/03 08:15:52;;;;;;;8.02;2.15;;;;;;;19.32;47.29;98433.19;5009486;28;20370;-95
2024/05/03 08:18:28;;;;;;;7.53;2.58;;;;;;;19.33;47.06;98429.31;5001961;28;19999;-96
2024/05/03 08:21:05;;;;;;;;;;;;;;;;;;;;;
2024/05/03 08:23:56;;;;;;;6.07;1.80;;;;;;;19.52;46.12;98445.03;5006527;28;19999;-95
2024/05/03 08:31:36;;;;;;;9.57;2.03;;;;;;;19.64;45.79;98433.22;5086590;28;20002;-96
2024/05/03 08:47:53;;;;;;;;;;;;;;;;;;;;;
2024/05/03 08:50:35;;;;;;;7.10;2.40;;;;;;;19.46;47.16;98447.19;4919372;29;20267;-95
2024/05/03 08:53:19;;;;;;;8.68;3.22;;;;;;;19.26;47.59;98440.03;4943947;29;20017;-96
2024/05/03 08:56:55;;;;;;;;;;;;;;;;;;;;;
2024/05/03 09:00:12;;;;;;;;;;;;;;;;;;;;;
2024/05/03 09:06:04;;;;;;;8.73;3.85;;;;;;;19.37;48.09;98424.75;4956992;28;20008;-96
2024/05/03 09:08:48;;;;;;;5.07;1.77;;;;;;;19.38;46.67;98420.84;4927787;28;20012;-96
2024/05/03 09:11:14;;;;;;;5.03;2.60;;;;;;;19.63;46.80;98442.56;4995597;28;20010;-96
2024/05/03 09:13:56;;;;;;;;;;;;;;;;;;;;;
2024/05/03 09:16:54;;;;;;;5.65;1.77;;;;;;;19.37;46.02;98406.44;4976521;28;20004;-94
2024/05/03 09:19:24;;;;;;;28.17;19.95;;;;;;;19.54;46.49;98421.66;4978658;28;20067;-95
2024/05/03 09:22:32;;;;;;;8.63;2.00;;;;;;;19.47;46.56;98413.31;5014607;28;20013;-96
2024/05/03 09:25:10;;;;;;;8.60;2.00;;;;;;;19.63;47.07;98415.25;5032003;28;20279;-95
2024/05/03 09:28:08;;;;;;;8.48;1.42;;;;;;;19.40;48.06;98415.84;5017054;28;20015;-96
2024/05/03 09:30:45;;;;;;;5.63;2.05;;;;;;;19.42;49.01;98446.31;4999531;28;20043;-95
2024/05/03 09:33:16;;;;;;;6.70;1.60;;;;;;;19.13;50.01;98429.19;4975428;28;20004;-95
2024/05/03 09:39:16;;;;;;;;;;;;;;;;;;;;;
2024/05/03 09:42:00;;;;;;;;;;;;;;;;;;;;;
2024/05/03 09:45:21;;;;;;;;;;;;;;;;;;;;;
2024/05/03 09:47:55;;;;;;;6.32;1.75;;;;;;;18.83;56.25;98427.97;5020855;28;20102;-95
2024/05/03 09:50:42;;;;;;;10.13;2.17;;;;;;;18.71;58.06;98415.91;5004788;28;20132;-96
2024/05/03 09:53:23;;;;;;;7.93;2.42;;;;;;;18.64;60.18;98417.66;5000741;28;19996;-95
2024/05/03 09:56:26;;;;;;;;;;;;;;;;;;;;;
2024/05/03 09:59:04;;;;;;;8.60;3.00;;;;;;;18.48;58.88;98409.41;5027047;28;20003;-95
2024/05/03 10:01:30;;;;;;;13.23;7.03;;;;;;;18.41;60.83;98417.34;5005966;28;20331;-95
2024/05/03 10:03:58;;;;;;;17.63;11.27;;;;;;;18.32;59.88;98421.03;5036400;28;20006;-95
2024/05/03 10:06:24;;;;;;;5.82;2.60;;;;;;;18.08;62.47;98421.84;5013365;28;20443;-95
2024/05/03 10:08:54;;;;;;;6.65;2.50;;;;;;;17.87;62.64;98411.06;5010597;28;20052;-96
2024/05/03 10:11:26;;;;;;;10.18;2.53;;;;;;;17.96;62.75;98413.66;5037101;28;20003;-96
2024/05/03 10:17:14;;;;;;;7.57;3.60;;;;;;;17.72;63.50;98417.94;4918677;28;20033;-96
2024/05/03 10:20:15;;;;;;;10.02;1.92;;;;;;;17.53;61.37;98404.84;5017809;28;20007;-96
2024/05/03 10:23:08;;;;;;;7.82;2.00;;;;;;;17.27;63.54;98413.34;4951774;28;20013;-96
2024/05/03 10:26:02;;;;;;;6.22;2.15;;;;;;;17.25;66.51;98423.75;5072599;28;20003;-95
2024/05/03 10:29:11;;;;;;;4.45;1.80;;;;;;;17.12;64.40;98409.34;5002659;28;19996;-94
2024/05/03 10:31:54;;;;;;;4.93;1.70;;;;;;;17.06;64.63;98432.44;4976462;28;19989;-96
2024/05/03 10:34:23;;;;;;;7.72;2.50;;;;;;;16.91;64.15;98419.44;5136634;23;20439;-92
2024/05/03 10:36:50;;;;;;;5.68;1.60;;;;;;;16.72;64.36;98409.03;5004290;28;20455;-96
2024/05/03 10:39:30;;;;;;;5.38;1.75;;;;;;;16.67;64.33;98411.94;4981875;28;20014;-96
2024/05/03 10:45:19;;;;;;;8.80;1.80;;;;;;;16.74;66.13;98431.22;5014891;28;20022;-95
2024/05/03 10:48:15;;;;;;;5.60;1.95;;;;;;;16.61;67.86;98432.31;5007343;28;20018;-96
2024/05/03 10:50:41;;;;;;;4.25;1.95;;;;;;;16.20;68.27;98385.75;4984417;28;19999;-96
2024/05/03 10:53:14;;;;;;;6.80;1.80;;;;;;;16.18;65.69;98398.88;4979872;28;20031;-94
2024/05/03 10:55:58;;;;;;;;;;;;;;;;;;;;;
2024/05/03 10:58:32;;;;;;;4.63;1.33;;;;;;;16.27;66.06;98405.06;5013106;28;20004;-95
2024/05/03 11:01:27;;;;;;;8.88;1.92;;;;;;;16.06;64.92;98402.31;4981462;28;20003;-94
2024/05/03 11:04:12;;;;;;;;;;;;;;;;;;;;;
2024/05/03 11:07:17;;;;;;;;;;;;;;;;;;;;;
2024/05/03 11:09:56;;;;;;;5.25;2.15;;;;;;;15.61;68.53;98396.59;5034370;28;20003;-96
2024/05/03 11:19:24;;;;;;;4.07;1.80;;;;;;;15.56;67.39;98401.09;5058154;28;20088;-95
2024/05/03 11:21:53;;;;;;;11.23;2.25;;;;;;;15.55;65.75;98390.53;4984905;28;20003;-96
2024/05/03 11:24:26;;;;;;;6.53;2.03;;;;;;;15.53;66.57;98401.72;4980443;28;20035;-96
2024/05/03 11:26:58;;;;;;;4.95;2.40;;;;;;;15.48;66.50;98391.06;5030848;28;20019;-95
2024/05/03 11:29:24;;;;;;;6.00;2.05;;;;;;;15.33;68.43;98397.00;4980935;28;20323;-96
2024/05/03 11:31:52;;;;;;;8.48;2.10;;;;;;;15.37;66.83;98384.38;4980242;28;20007;-95
2024/05/03 11:34:27;;;;;;;5.38;2.00;;;;;;;15.40;67.57;98370.19;4982112;28;20014;-95
2024/05/03 11:37:01;;;;;;;8.88;1.83;;;;;;;15.43;67.06;98374.16;4983831;28;20059;-96
2024/05/03 11:39:27;;;;;;;8.35;4.28;;;;;;;15.38;67.61;98372.41;4984068;28;19999;-96
2024/05/03 11:42:03;;;;;;;6.45;2.80;;;;;;;15.34;67.06;98364.13;4980435;28;19999;-95
2024/05/03 11:44:31;;;;;;;10.88;3.67;;;;;;;15.27;68.73;98358.44;4984119;28;20015;-96
2024/05/03 11:47:10;;;;;;;7.72;2.42;;;;;;;15.29;70.46;98360.78;4986324;28;20003;-96
2024/05/03 11:50:15;;;;;;;7.10;2.03;;;;;;;15.46;69.28;98393.28;4986698;28;20023;-96
2024/05/03 11:53:09;;;;;;;6.95;1.88;;;;;;;15.40;70.53;98369.38;5016329;28;20068;-96
2024/05/03 11:55:39;;;;;;;5.85;1.95;;;;;;;15.84;68.33;98395.22;4945963;29;20481;-96
2024/05/03 11:58:08;;;;;;;4.13;1.92;;;;;;;15.69;67.00;98365.91;5021283;28;19999;-96
2024/05/03 12:00:58;;;;;;;8.52;1.75;;;;;;;15.70;66.52;98351.22;4982440;28;20447;-96
2024/05/03 12:03:32;;;;;;;6.60;2.20;;;;;;;15.86;65.54;98373.97;5031693;28;20019;-96
2024/05/03 12:06:01;;;;;;;4.72;1.95;;;;;;;15.83;65.71;98368.41;4981695;28;19999;-96
2024/05/03 12:08:42;;;;;;;;;;;;;;;;;;;;;
2024/05/03 12:11:19;;;;;;;5.70;1.40;;;;;;;15.78;64.86;98358.53;5010366;28;20003;-96
2024/05/03 12:13:51;;;;;;;7.85;1.88;;;;;;;15.85;66.21;98355.31;5006626;28;20071;-96
2024/05/03 12:16:38;;;;;;;4.20;1.70;;;;;;;15.85;63.93;98358.03;5005599;28;20019;-94
2024/05/03 12:19:13;;;;;;;6.22;1.90;;;;;;;16.00;64.10;98381.91;4988971;28;20014;-96
2024/05/03 12:22:06;;;;;;;;;;;;;;;;;;;;;
2024/05/03 12:24:32;;;;;;;4.50;1.55;;;;;;;16.03;63.30;98377.72;5009091;28;20004;-96
2024/05/03 12:27:04;;;;;;;6.47;1.98;;;;;;;15.99;64.16;98374.06;4980546;28;20003;-95
2024/05/03 12:30:17;;;;;;;12.70;3.53;;;;;;;15.88;66.10;98365.53;4982849;28;20027;-96
2024/05/03 12:32:57;;;;;;;6.53;2.10;;;;;;;15.98;64.62;98367.84;5035798;27;19991;-96
2024/05/03 12:35:30;;;;;;;3.72;1.70;;;;;;;15.85;64.45;98341.72;5039650;28;20016;-96
2024/05/03 12:38:20;;;;;;;;;;;;;;;;;;;;;
2024/05/03 12:41:12;;;;;;;4.97;2.40;;;;;;;15.79;67.25;98338.41;5072874;28;20002;-96
2024/05/03 12:43:54;;;;;;;7.03;2.10;;;;;;;16.04;64.58;98344.00;5038772;28;20014;-96
2024/05/03 12:46:22;;;;;;;;;;;;;;;16.10;66.06;98356.25;5018285;28;19999;-95
2024/05/03 12:52:10;;;;;;;7.63;2.17;;;;;;;16.16;65.40;98334.03;5048869;28;20042;-96
2024/05/03 12:55:00;;;;;;;4.50;1.80;;;;;;;16.14;64.13;98330.84;5033684;28;20002;-95
2024/05/03 12:57:40;;;;;;;5.28;1.85;;;;;;;16.36;63.90;98340.56;5021096;28;20487;-95
2024/05/03 13:00:17;;;;;;;7.78;2.00;;;;;;;16.59;63.50;98332.06;5019468;28;19999;-96
2024/05/03 13:03:04;;;;;;;;;;;;;;;;;;;;;
2024/05/03 13:09:41;;;;;;;10.40;2.00;;;;;;;16.79;62.61;98314.13;5066758;28;20407;-96
2024/05/03 13:12:30;;;;;;;;;;;;;;;;;;;;;
2024/05/03 13:15:04;;;;;;;4.97;2.10;;;;;;;16.88;60.68;98319.50;5054813;28;20002;-96
2024/05/03 13:20:52;;;;;;;4.85;1.70;;;;;;;16.96;59.50;98326.78;5055137;28;20026;-96
2024/05/03 13:23:21;;;;;;;5.72;1.70;;;;;;;16.74;59.87;98287.94;5047159;28;20007;-93
2024/05/03 13:26:28;;;;;;;;;;;;;;;;;;;;;
2024/05/03 13:29:01;;;;;;;3.45;1.50;;;;;;;16.63;60.81;98299.59;4914418;29;19999;-96
2024/05/03 13:38:55;;;;;;;;;;;;;;;;;;;;;
2024/05/03 13:41:43;;;;;;;;;;;;;;;;;;;;;
2024/05/03 13:44:26;;;;;;;5.10;1.92;;;;;;;16.15;62.70;98313.41;4895387;29;20001;-95
2024/05/03 13:47:06;;;;;;;5.68;2.30;;;;;;;16.10;63.50;98301.94;4974777;28;20012;-96
2024/05/03 13:50:05;;;;;;;;;;;;;;;;;;;;;
2024/05/03 13:52:31;;;;;;;8.65;2.65;;;;;;;16.13;63.94;98310.25;5015995;28;20007;-96
2024/05/03 13:55:00;;;;;;;8.75;2.60;;;;;;;16.28;65.13;98340.66;4988421;28;20006;-96
2024/05/03 14:03:19;;;;;;;9.48;2.75;;;;;;;16.19;64.52;98340.72;5027950;28;20010;-96
2024/05/03 14:06:04;;;;;;;6.78;2.00;;;;;;;15.99;64.24;98326.00;5015367;28;20011;-96
2024/05/03 14:08:52;;;;;;;4.60;1.83;;;;;;;15.94;65.00;98350.63;5016257;28;20037;-96
2024/05/03 14:11:26;;;;;;;6.30;2.00;;;;;;;15.93;64.15;98344.38;5010537;28;20004;-96
2024/05/03 14:17:26;;;;;;;9.70;5.65;;;;;;;15.67;65.44;98343.72;4969541;28;20004;-96
2024/05/03 14:20:28;;;;;;;4.60;1.67;;;;;;;15.63;65.64;98334.66;4920806;28;20030;-96
2024/05/03 14:23:00;;;;;;;4.72;1.75;;;;;;;15.62;66.30;98335.75;4916797;29;20002;-96
2024/05/03 14:25:33;;;;;;;;;;;;;;;15.69;66.66;98355.84;4910790;29;20006;-96
2024/05/03 14:28:02;;;;;;;7.95;1.80;;;;;;;15.40;67.49;98340.34;4934501;29;19940;-95
2024/05/03 14:30:30;;;;;;;7.38;2.47;;;;;;;15.54;66.91;98353.66;4909088;29;20009;-96
2024/05/03 14:33:31;;;;;;;;;;;;;;;;;;;;;
2024/05/03 14:36:05;;;;;;;6.90;2.55;;;;;;;15.29;67.14;98333.66;4920348;29;20103;-96
2024/05/03 14:39:08;;;;;;;;;;;;;;;;;;;;;
2024/05/03 14:42:08;;;;;;;;;;;;;;;;;;;;;
2024/05/03 14:44:41;;;;;;;5.95;3.75;;;;;;;15.09;69.81;98318.94;4937542;29;20001;-96
2024/05/03 14:48:09;;;;;;;;;;;;;;;;;;;;;
2024/05/03 14:54:29;;;;;;;;;;;;;;;;;;;;;
2024/05/03 14:57:31;;;;;;;;;;;;;;;;;;;;;
2024/05/03 15:00:02;;;;;;;4.22;2.22;;;;;;;15.01;71.01;98320.53;4988770;28;20012;-95
2024/05/03 15:02:36;;;;;;;5.57;1.98;;;;;;;14.81;71.31;98310.38;4948274;28;20068;-96
2024/05/03 15:05:22;;;;;;;5.88;2.00;;;;;;;14.75;72.38;98317.88;4926926;28;20000;-96
2024/05/03 15:08:13;;;;;;;5.40;2.25;;;;;;;14.79;74.63;98329.66;4891335;29;20002;-96
2024/05/03 15:14:42;;;;;;;5.55;3.72;;;;;;;14.59;72.69;98303.25;4913732;29;20007;-95
2024/05/03 15:23:51;;;;;;;4.70;2.00;;;;;;;14.36;72.66;98292.59;4977417;28;20032;-95
2024/05/03 15:26:31;;;;;;;;;;;;;;;;;;;;;